createdAt,value
2023-04-22T00:00:18.480Z,15.70
2023-04-22T00:01:18.466Z,15.90
2023-04-22T00:02:18.498Z,15.90
2023-04-22T00:03:18.578Z,16.70
2023-04-22T00:04:19.774Z,16.10
2023-04-22T00:05:20.513Z,15.70
2023-04-22T00:06:19.424Z,17.40
2023-04-22T00:07:18.398Z,16.50
2023-04-22T00:08:18.404Z,15.40
2023-04-22T00:09:18.405Z,13.30
2023-04-22T00:10:18.374Z,12.30
2023-04-22T00:11:18.363Z,12.10
2023-04-22T00:12:18.394Z,12.30
2023-04-22T00:13:18.365Z,11.80
2023-04-22T00:14:18.337Z,10.30
2023-04-22T00:15:18.339Z,9.40
2023-04-22T00:16:18.400Z,9.60
2023-04-22T00:17:18.365Z,10.00
2023-04-22T00:18:18.325Z,10.30
2023-04-22T00:19:18.305Z,11.20
2023-04-22T00:20:18.300Z,13.60
2023-04-22T00:21:18.298Z,13.90
2023-04-22T00:22:18.317Z,14.60
2023-04-22T00:23:18.286Z,14.20
2023-04-22T00:24:18.279Z,14.10
2023-04-22T00:25:18.260Z,13.90
2023-04-22T00:26:18.255Z,13.80
2023-04-22T00:27:18.281Z,13.50
2023-04-22T00:28:18.248Z,13.90
2023-04-22T00:29:18.246Z,14.10
2023-04-22T00:30:18.219Z,13.80
2023-04-22T00:31:18.279Z,13.20
2023-04-22T00:32:18.233Z,13.10
2023-04-22T00:33:18.201Z,13.70
2023-04-22T00:34:18.225Z,13.00
2023-04-22T00:35:19.198Z,12.50
2023-04-22T00:36:18.180Z,12.10
2023-04-22T00:37:18.205Z,12.80
2023-04-22T00:38:18.166Z,12.80
2023-04-22T00:39:18.156Z,12.80
2023-04-22T00:40:18.144Z,13.40
2023-04-22T00:41:19.141Z,13.70
2023-04-22T00:42:18.154Z,14.10
2023-04-22T00:43:18.128Z,13.30
2023-04-22T00:44:18.121Z,13.60
2023-04-22T00:45:18.160Z,13.70
2023-04-22T00:46:18.105Z,13.60
2023-04-22T00:47:18.173Z,13.30
2023-04-22T00:48:18.083Z,13.80
2023-04-22T00:49:18.072Z,13.40
2023-04-22T00:50:18.067Z,13.30
2023-04-22T00:51:18.059Z,13.50
2023-04-22T00:52:18.075Z,11.60
2023-04-22T00:53:18.046Z,12.60
2023-04-22T00:54:18.074Z,12.60
2023-04-22T00:55:18.033Z,12.40
2023-04-22T00:56:18.020Z,11.20
2023-04-22T00:57:18.047Z,11.90
2023-04-22T00:58:18.009Z,12.10
2023-04-22T00:59:18.006Z,12.50
2023-04-22T01:00:17.988Z,13.10
2023-04-22T01:01:18.086Z,12.40
2023-04-22T01:02:18.064Z,11.40
2023-04-22T01:03:18.182Z,11.10
2023-04-22T01:04:18.149Z,11.30
2023-04-22T01:05:17.952Z,11.30
2023-04-22T01:06:17.956Z,11.20
2023-04-22T01:07:17.968Z,11.30
2023-04-22T01:08:17.924Z,10.40
2023-04-22T01:09:18.024Z,9.50
2023-04-22T01:10:18.004Z,9.40
2023-04-22T01:11:17.920Z,8.80
2023-04-22T01:12:17.943Z,8.40
2023-04-22T01:13:17.903Z,8.60
2023-04-22T01:14:17.888Z,8.40
2023-04-22T01:15:17.881Z,8.40
2023-04-22T01:16:17.959Z,9.20
2023-04-22T01:17:17.894Z,9.20
2023-04-22T01:18:17.860Z,9.10
2023-04-22T01:19:17.861Z,9.80
2023-04-22T01:20:17.838Z,10.80
2023-04-22T01:21:17.836Z,10.40
2023-04-22T01:22:17.853Z,10.90
2023-04-22T01:23:17.822Z,9.20
2023-04-22T01:24:17.820Z,9.10
2023-04-22T01:25:17.809Z,9.00
2023-04-22T01:26:17.799Z,8.60
2023-04-22T01:27:17.814Z,8.40
2023-04-22T01:28:17.789Z,9.50
2023-04-22T01:29:17.783Z,9.20
2023-04-22T01:30:17.788Z,9.40
2023-04-22T01:31:17.766Z,8.80
2023-04-22T01:32:17.874Z,8.40
2023-04-22T01:33:17.827Z,8.60
2023-04-22T01:34:17.742Z,8.80
2023-04-22T01:35:17.731Z,9.20
2023-04-22T01:36:17.731Z,8.80
2023-04-22T01:37:17.745Z,8.60
2023-04-22T01:38:17.715Z,8.60
2023-04-22T01:39:17.702Z,8.60
2023-04-22T01:40:17.696Z,7.60
2023-04-22T01:41:17.685Z,7.90
2023-04-22T01:42:17.708Z,7.60
2023-04-22T01:43:17.670Z,7.70
2023-04-22T01:44:17.656Z,7.60
2023-04-22T01:45:17.666Z,7.30
2023-04-22T01:46:17.687Z,7.30
2023-04-22T01:47:17.677Z,7.70
2023-04-22T01:48:17.766Z,7.40
2023-04-22T01:49:17.647Z,7.60
2023-04-22T01:50:17.637Z,7.80
2023-04-22T01:51:17.622Z,7.60
2023-04-22T01:52:17.635Z,8.00
2023-04-22T01:53:17.610Z,7.80
2023-04-22T01:54:17.592Z,7.30
2023-04-22T01:55:17.591Z,7.60
2023-04-22T01:56:17.581Z,7.60
2023-04-22T01:57:17.600Z,7.50
2023-04-22T01:58:17.575Z,7.60
2023-04-22T01:59:17.575Z,7.70
2023-04-22T02:00:17.551Z,7.60
2023-04-22T02:01:17.668Z,7.50
2023-04-22T02:02:17.681Z,7.90
2023-04-22T02:03:17.633Z,7.80
2023-04-22T02:04:17.513Z,7.60
2023-04-22T02:05:17.500Z,7.70
2023-04-22T02:06:17.494Z,7.50
2023-04-22T02:07:17.524Z,7.70
2023-04-22T02:08:17.479Z,7.40
2023-04-22T02:09:17.481Z,7.90
2023-04-22T02:10:17.477Z,8.40
2023-04-22T02:11:17.495Z,7.70
2023-04-22T02:12:17.473Z,8.00
2023-04-22T02:13:17.444Z,8.00
2023-04-22T02:14:17.432Z,8.30
2023-04-22T02:15:17.455Z,7.90
2023-04-22T02:16:17.435Z,7.90
2023-04-22T02:17:17.437Z,8.10
2023-04-22T02:18:17.423Z,8.20
2023-04-22T02:19:17.394Z,8.60
2023-04-22T02:20:17.460Z,8.60
2023-04-22T02:21:17.385Z,8.30
2023-04-22T02:22:17.365Z,8.60
2023-04-22T02:23:17.395Z,9.20
2023-04-22T02:24:17.353Z,9.00
2023-04-22T02:25:17.349Z,8.40
2023-04-22T02:26:17.353Z,9.10
2023-04-22T02:27:17.341Z,9.40
2023-04-22T02:28:17.351Z,9.10
2023-04-22T02:29:17.306Z,8.90
2023-04-22T02:30:17.309Z,8.90
2023-04-22T02:31:17.348Z,8.40
2023-04-22T02:32:17.286Z,9.00
2023-04-22T02:33:17.302Z,8.70
2023-04-22T02:34:17.275Z,8.50
2023-04-22T02:35:17.282Z,8.40
2023-04-22T02:36:17.288Z,8.60
2023-04-22T02:37:17.256Z,8.80
2023-04-22T02:38:17.273Z,8.90
2023-04-22T02:39:17.237Z,8.70
2023-04-22T02:40:17.236Z,9.20
2023-04-22T02:41:17.221Z,8.70
2023-04-22T02:42:17.219Z,8.50
2023-04-22T02:43:17.235Z,8.20
2023-04-22T02:44:17.204Z,7.90
2023-04-22T02:45:17.191Z,8.60
2023-04-22T02:46:17.203Z,8.60
2023-04-22T02:47:17.180Z,8.30
2023-04-22T02:48:17.189Z,8.40
2023-04-22T02:49:17.161Z,8.60
2023-04-22T02:50:17.146Z,9.10
2023-04-22T02:51:17.143Z,9.10
2023-04-22T02:52:17.136Z,9.20
2023-04-22T02:53:17.149Z,8.80
2023-04-22T02:54:17.114Z,8.30
2023-04-22T02:55:17.106Z,7.90
2023-04-22T02:56:17.102Z,8.20
2023-04-22T02:57:17.094Z,8.20
2023-04-22T02:58:17.114Z,7.90
2023-04-22T02:59:17.075Z,8.00
2023-04-22T03:00:17.089Z,8.40
2023-04-22T03:01:17.152Z,8.00
2023-04-22T03:02:17.105Z,8.10
2023-04-22T03:03:17.227Z,8.00
2023-04-22T03:04:17.296Z,7.80
2023-04-22T03:05:17.032Z,8.10
2023-04-22T03:06:17.037Z,8.30
2023-04-22T03:07:17.031Z,8.20
2023-04-22T03:08:17.036Z,7.70
2023-04-22T03:09:17.000Z,8.10
2023-04-22T03:10:16.999Z,8.10
2023-04-22T03:11:18.002Z,8.00
2023-04-22T03:12:16.983Z,8.30
2023-04-22T03:13:16.998Z,8.60
2023-04-22T03:14:16.964Z,8.00
2023-04-22T03:15:19.560Z,7.90
2023-04-22T03:16:17.035Z,8.00
2023-04-22T03:17:16.936Z,7.80
2023-04-22T03:18:16.963Z,8.00
2023-04-22T03:19:16.931Z,7.50
2023-04-22T03:20:16.935Z,8.40
2023-04-22T03:21:16.907Z,7.90
2023-04-22T03:22:16.907Z,7.70
2023-04-22T03:23:16.923Z,7.80
2023-04-22T03:24:16.895Z,7.80
2023-04-22T03:25:16.884Z,8.20
2023-04-22T03:26:16.869Z,7.80
2023-04-22T03:27:16.907Z,8.40
2023-04-22T03:28:16.888Z,8.60
2023-04-22T03:29:16.849Z,8.50
2023-04-22T03:30:16.862Z,8.80
2023-04-22T03:31:16.834Z,8.50
2023-04-22T03:32:16.869Z,8.90
2023-04-22T03:33:16.905Z,8.50
2023-04-22T03:34:16.822Z,8.50
2023-04-22T03:35:16.807Z,8.80
2023-04-22T03:36:16.792Z,8.80
2023-04-22T03:37:16.786Z,9.10
2023-04-22T03:38:16.811Z,9.10
2023-04-22T03:39:16.773Z,9.00
2023-04-22T03:40:16.766Z,9.70
2023-04-22T03:41:16.745Z,8.80
2023-04-22T03:42:17.739Z,9.40
2023-04-22T03:43:16.772Z,9.90
2023-04-22T03:44:16.749Z,9.40
2023-04-22T03:45:16.725Z,9.30
2023-04-22T03:46:16.732Z,9.50
2023-04-22T03:47:16.713Z,9.40
2023-04-22T03:48:16.724Z,8.70
2023-04-22T03:49:16.698Z,9.20
2023-04-22T03:50:16.691Z,9.20
2023-04-22T03:51:16.698Z,9.40
2023-04-22T03:52:16.675Z,9.40
2023-04-22T03:53:16.713Z,8.90
2023-04-22T03:54:16.656Z,9.20
2023-04-22T03:55:16.652Z,9.40
2023-04-22T03:56:16.649Z,9.50
2023-04-22T03:57:16.650Z,9.90
2023-04-22T03:58:16.658Z,9.40
2023-04-22T03:59:16.621Z,9.00
2023-04-22T04:00:16.646Z,8.90
2023-04-22T04:01:16.614Z,8.60
2023-04-22T04:02:16.659Z,8.60
2023-04-22T04:03:16.856Z,8.80
2023-04-22T04:04:16.847Z,8.60
2023-04-22T04:05:16.814Z,8.80
2023-04-22T04:06:16.576Z,8.50
2023-04-22T04:07:16.566Z,8.60
2023-04-22T04:08:16.581Z,8.80
2023-04-22T04:09:16.563Z,8.30
2023-04-22T04:10:16.542Z,8.80
2023-04-22T04:11:16.539Z,8.50
2023-04-22T04:12:16.530Z,9.10
2023-04-22T04:13:16.541Z,9.00
2023-04-22T04:14:17.534Z,9.20
2023-04-22T04:15:16.513Z,9.10
2023-04-22T04:16:16.541Z,8.50
2023-04-22T04:17:16.488Z,9.30
2023-04-22T04:18:16.521Z,8.80
2023-04-22T04:19:16.484Z,9.10
2023-04-22T04:20:16.471Z,9.20
2023-04-22T04:21:16.453Z,9.10
2023-04-22T04:22:16.441Z,9.20
2023-04-22T04:23:16.462Z,9.00
2023-04-22T04:24:16.435Z,9.10
2023-04-22T04:25:16.416Z,8.70
2023-04-22T04:26:16.412Z,8.20
2023-04-22T04:27:16.457Z,8.30
2023-04-22T04:28:16.431Z,8.50
2023-04-22T04:29:16.392Z,8.40
2023-04-22T04:30:16.407Z,8.00
2023-04-22T04:31:16.424Z,8.10
2023-04-22T04:32:16.374Z,8.40
2023-04-22T04:33:16.382Z,8.40
2023-04-22T04:34:16.348Z,8.40
2023-04-22T04:35:16.357Z,8.40
2023-04-22T04:36:16.367Z,8.10
2023-04-22T04:37:16.335Z,7.90
2023-04-22T04:38:16.347Z,8.20
2023-04-22T04:39:16.318Z,8.10
2023-04-22T04:40:16.303Z,8.40
2023-04-22T04:41:16.298Z,8.10
2023-04-22T04:42:16.285Z,8.60
2023-04-22T04:43:16.300Z,8.50
2023-04-22T04:44:16.276Z,8.50
2023-04-22T04:45:16.256Z,8.50
2023-04-22T04:46:16.293Z,8.40
2023-04-22T04:47:16.260Z,8.70
2023-04-22T04:48:16.278Z,8.70
2023-04-22T04:49:16.236Z,8.80
2023-04-22T04:50:16.225Z,8.80
2023-04-22T04:51:17.555Z,8.50
2023-04-22T04:52:16.224Z,8.70
2023-04-22T04:53:16.248Z,8.60
2023-04-22T04:54:16.211Z,8.30
2023-04-22T04:55:16.235Z,8.70
2023-04-22T04:56:16.187Z,8.80
2023-04-22T04:57:16.170Z,17.90
2023-04-22T04:58:16.178Z,10.50
2023-04-22T04:59:16.187Z,9.20
2023-04-22T05:00:16.158Z,8.30
2023-04-22T05:01:16.160Z,8.10
2023-04-22T05:02:16.231Z,8.20
2023-04-22T05:03:16.272Z,8.30
2023-04-22T05:04:16.377Z,8.10
2023-04-22T05:05:16.118Z,8.30
2023-04-22T05:06:16.112Z,8.60
2023-04-22T05:07:16.096Z,7.90
2023-04-22T05:08:16.102Z,8.30
2023-04-22T05:09:16.109Z,8.00
2023-04-22T05:10:16.088Z,7.80
2023-04-22T05:11:16.069Z,8.50
2023-04-22T05:12:16.052Z,8.10
2023-04-22T05:13:16.051Z,7.90
2023-04-22T05:14:16.070Z,8.10
2023-04-22T05:15:16.041Z,7.90
2023-04-22T05:16:16.048Z,7.60
2023-04-22T05:17:16.028Z,7.80
2023-04-22T05:18:16.017Z,7.60
2023-04-22T05:19:16.038Z,7.80
2023-04-22T05:21:49.084Z,7.90
2023-04-22T05:22:49.093Z,8.00
2023-04-22T05:23:49.107Z,7.70
2023-04-22T05:24:49.079Z,7.90
2023-04-22T05:25:50.860Z,7.80
2023-04-22T05:26:49.127Z,7.90
2023-04-22T05:27:50.200Z,8.00
2023-04-22T05:28:50.205Z,8.30
2023-04-22T05:29:50.186Z,8.50
2023-04-22T05:30:50.163Z,8.20
2023-04-22T05:31:50.198Z,8.20
2023-04-22T05:32:50.185Z,8.00
2023-04-22T05:33:50.174Z,7.90
2023-04-22T05:34:50.132Z,7.70
2023-04-22T05:35:50.125Z,8.00
2023-04-22T05:36:50.112Z,7.60
2023-04-22T05:37:50.117Z,7.60
2023-04-22T05:38:50.147Z,7.10
2023-04-22T05:39:50.092Z,7.80
2023-04-22T05:40:50.088Z,7.50
2023-04-22T05:41:50.088Z,7.70
2023-04-22T05:42:50.070Z,8.10
2023-04-22T05:43:50.150Z,7.80
2023-04-22T05:44:50.052Z,7.60
2023-04-22T05:45:50.083Z,7.80
2023-04-22T05:46:50.049Z,8.10
2023-04-22T05:47:50.172Z,7.70
2023-04-22T05:48:50.051Z,7.90
2023-04-22T05:49:50.014Z,7.70
2023-04-22T05:50:50.033Z,7.60
2023-04-22T05:51:50.022Z,7.70
2023-04-22T05:52:49.992Z,7.50
2023-04-22T05:53:50.017Z,7.50
2023-04-22T05:54:49.987Z,7.20
2023-04-22T05:55:50.856Z,7.50
2023-04-22T05:56:49.960Z,7.40
2023-04-22T05:57:50.043Z,7.20
2023-04-22T05:58:49.982Z,7.50
2023-04-22T05:59:49.938Z,7.80
2023-04-22T06:00:49.946Z,7.80
2023-04-22T06:01:49.927Z,7.60
2023-04-22T06:02:50.115Z,7.50
2023-04-22T06:03:50.167Z,7.90
2023-04-22T06:04:50.268Z,7.70
2023-04-22T06:05:50.092Z,7.90
2023-04-22T06:06:49.914Z,7.80
2023-04-22T06:07:49.878Z,7.80
2023-04-22T06:08:49.904Z,7.90
2023-04-22T06:09:49.851Z,7.80
2023-04-22T06:10:49.850Z,8.00
2023-04-22T06:11:49.853Z,8.30
2023-04-22T06:12:49.856Z,9.00
2023-04-22T06:13:49.858Z,8.70
2023-04-22T06:14:49.828Z,8.50
2023-04-22T06:15:49.839Z,8.60
2023-04-22T06:16:49.798Z,8.70
2023-04-22T06:17:49.911Z,8.70
2023-04-22T06:18:49.809Z,8.70
2023-04-22T06:19:49.773Z,8.50
2023-04-22T06:20:49.766Z,8.60
2023-04-22T06:21:49.759Z,8.60
2023-04-22T06:22:49.747Z,9.00
2023-04-22T06:23:49.763Z,8.80
2023-04-22T06:24:49.731Z,8.20
2023-04-22T06:25:49.743Z,8.80
2023-04-22T06:26:49.731Z,8.90
2023-04-22T06:27:49.707Z,9.00
2023-04-22T06:28:49.726Z,8.70
2023-04-22T06:29:49.752Z,8.90
2023-04-22T06:30:49.757Z,9.30
2023-04-22T06:31:49.774Z,8.90
2023-04-22T06:32:49.690Z,8.80
2023-04-22T06:33:49.685Z,8.70
2023-04-22T06:34:49.651Z,8.60
2023-04-22T06:35:49.645Z,8.90
2023-04-22T06:36:49.639Z,8.80
2023-04-22T06:37:49.629Z,9.00
2023-04-22T06:38:49.674Z,8.80
2023-04-22T06:39:49.617Z,9.20
2023-04-22T06:40:49.613Z,8.90
2023-04-22T06:41:49.597Z,8.80
2023-04-22T06:42:49.637Z,8.90
2023-04-22T06:43:49.633Z,8.80
2023-04-22T06:44:49.574Z,8.80
2023-04-22T06:45:49.565Z,8.80
2023-04-22T06:46:49.617Z,8.50
2023-04-22T06:47:49.613Z,8.30
2023-04-22T06:48:49.581Z,8.50
2023-04-22T06:49:49.535Z,8.60
2023-04-22T06:50:49.537Z,8.60
2023-04-22T06:51:49.558Z,8.30
2023-04-22T06:52:49.514Z,8.50
2023-04-22T06:53:49.513Z,8.20
2023-04-22T06:54:49.522Z,8.50
2023-04-22T06:55:49.484Z,8.20
2023-04-22T06:56:49.490Z,8.10
2023-04-22T06:57:49.474Z,8.00
2023-04-22T06:58:49.470Z,8.80
2023-04-22T06:59:49.491Z,8.00
2023-04-22T07:00:49.450Z,8.40
2023-04-22T07:01:49.473Z,8.60
2023-04-22T07:02:49.487Z,8.20
2023-04-22T07:03:50.472Z,8.40
2023-04-22T07:04:49.448Z,8.20
2023-04-22T07:05:49.410Z,8.60
2023-04-22T07:06:49.400Z,8.80
2023-04-22T07:07:49.402Z,8.40
2023-04-22T07:08:49.387Z,8.60
2023-04-22T07:09:49.399Z,8.40
2023-04-22T07:10:49.713Z,8.40
2023-04-22T07:11:49.357Z,8.60
2023-04-22T07:12:49.356Z,8.50
2023-04-22T07:13:49.343Z,8.90
2023-04-22T07:14:49.366Z,8.90
2023-04-22T07:15:49.325Z,9.00
2023-04-22T07:16:49.945Z,8.50
2023-04-22T07:17:49.339Z,9.10
2023-04-22T07:18:49.309Z,8.80
2023-04-22T07:19:49.883Z,8.70
2023-04-22T07:20:49.297Z,9.10
2023-04-22T07:21:49.287Z,8.60
2023-04-22T07:22:49.270Z,9.10
2023-04-22T07:23:49.311Z,9.20
2023-04-22T07:24:49.283Z,8.90
2023-04-22T07:25:49.254Z,9.20
2023-04-22T07:26:49.350Z,8.50
2023-04-22T07:27:49.237Z,8.70
2023-04-22T07:28:49.229Z,8.40
2023-04-22T07:29:49.236Z,8.60
2023-04-22T07:30:49.223Z,8.30
2023-04-22T07:31:49.238Z,8.30
2023-04-22T07:32:49.249Z,8.50
2023-04-22T07:33:49.198Z,8.70
2023-04-22T07:34:49.202Z,8.00
2023-04-22T07:35:49.175Z,7.80
2023-04-22T07:36:49.174Z,7.90
2023-04-22T07:37:49.151Z,7.70
2023-04-22T07:38:49.190Z,7.80
2023-04-22T07:39:49.170Z,7.30
2023-04-22T07:40:49.127Z,7.80
2023-04-22T07:41:49.128Z,7.10
2023-04-22T07:42:49.126Z,7.70
2023-04-22T07:43:49.113Z,7.40
2023-04-22T07:44:49.136Z,7.20
2023-04-22T07:45:49.096Z,7.60
2023-04-22T07:46:49.081Z,7.20
2023-04-22T07:47:49.084Z,6.90
2023-04-22T07:48:49.097Z,6.90
2023-04-22T07:49:49.116Z,6.90
2023-04-22T07:50:49.056Z,7.00
2023-04-22T07:51:49.058Z,7.20
2023-04-22T07:52:49.042Z,6.80
2023-04-22T07:53:49.027Z,7.20
2023-04-22T07:54:49.053Z,7.10
2023-04-22T07:55:49.023Z,6.50
2023-04-22T07:56:49.007Z,7.10
2023-04-22T07:57:49.019Z,6.90
2023-04-22T07:58:49.005Z,6.50
2023-04-22T07:59:49.022Z,6.40
2023-04-22T08:00:49.044Z,5.80
2023-04-22T08:01:48.986Z,6.70
2023-04-22T08:02:49.054Z,6.50
2023-04-22T08:03:49.242Z,6.70
2023-04-22T08:04:49.085Z,5.90
2023-04-22T08:05:48.950Z,5.90
2023-04-22T08:06:48.943Z,5.90
2023-04-22T08:07:48.931Z,5.50
2023-04-22T08:08:48.921Z,5.30
2023-04-22T08:09:48.949Z,5.20
2023-04-22T08:10:48.899Z,5.00
2023-04-22T08:11:48.909Z,4.90
2023-04-22T08:12:48.897Z,5.20
2023-04-22T08:13:48.884Z,5.20
2023-04-22T08:14:48.938Z,5.10
2023-04-22T08:15:48.933Z,4.90
2023-04-22T08:16:48.855Z,5.30
2023-04-22T08:17:48.936Z,5.00
2023-04-22T08:18:48.851Z,4.80
2023-04-22T08:19:48.891Z,4.80
2023-04-22T08:20:48.821Z,5.00
2023-04-22T08:21:48.906Z,4.90
2023-04-22T08:22:48.822Z,5.00
2023-04-22T08:23:48.811Z,4.80
2023-04-22T08:24:48.867Z,5.00
2023-04-22T08:25:48.791Z,5.20
2023-04-22T08:26:48.778Z,4.90
2023-04-22T08:27:48.793Z,5.00
2023-04-22T08:28:48.770Z,5.00
2023-04-22T08:29:48.788Z,4.90
2023-04-22T08:30:48.769Z,4.70
2023-04-22T08:31:49.759Z,4.80
2023-04-22T08:32:48.784Z,5.00
2023-04-22T08:33:48.735Z,4.80
2023-04-22T08:34:51.600Z,5.00
2023-04-22T08:35:48.714Z,4.90
2023-04-22T08:36:48.742Z,4.80
2023-04-22T08:37:48.736Z,4.80
2023-04-22T08:38:50.110Z,4.60
2023-04-22T08:39:49.733Z,4.70
2023-04-22T08:40:48.704Z,4.50
2023-04-22T08:41:48.708Z,4.80
2023-04-22T08:42:48.680Z,4.90
2023-04-22T08:43:48.822Z,4.90
2023-04-22T08:44:48.681Z,5.00
2023-04-22T08:45:48.653Z,5.30
2023-04-22T08:46:48.653Z,5.20
2023-04-22T08:47:48.660Z,4.70
2023-04-22T08:48:48.625Z,4.80
2023-04-22T08:49:48.662Z,4.90
2023-04-22T08:50:48.620Z,5.00
2023-04-22T08:51:48.595Z,4.50
2023-04-22T08:52:48.592Z,4.60
2023-04-22T08:53:48.611Z,4.70
2023-04-22T08:54:48.596Z,4.70
2023-04-22T08:55:48.567Z,4.40
2023-04-22T08:56:48.560Z,4.80
2023-04-22T08:57:48.598Z,4.60
2023-04-22T08:58:48.577Z,4.90
2023-04-22T08:59:48.651Z,4.50
2023-04-22T09:00:48.586Z,4.50
2023-04-22T09:01:48.562Z,4.60
2023-04-22T09:02:48.620Z,4.30
2023-04-22T09:03:48.618Z,4.30
2023-04-22T09:04:48.532Z,4.50
2023-04-22T09:05:48.545Z,4.30
2023-04-22T09:06:48.493Z,4.80
2023-04-22T09:07:48.474Z,4.60
2023-04-22T09:08:48.461Z,4.40
2023-04-22T09:09:48.482Z,4.90
2023-04-22T09:10:48.450Z,4.30
2023-04-22T09:11:48.453Z,4.20
2023-04-22T09:12:48.446Z,4.10
2023-04-22T09:13:48.424Z,4.20
2023-04-22T09:14:48.439Z,4.40
2023-04-22T09:15:48.401Z,4.60
2023-04-22T09:16:48.443Z,4.50
2023-04-22T09:17:48.422Z,4.40
2023-04-22T09:18:48.388Z,4.70
2023-04-22T09:19:48.364Z,4.60
2023-04-22T09:20:48.390Z,4.50
2023-04-22T09:21:49.937Z,4.50
2023-04-22T09:22:49.380Z,4.70
2023-04-22T09:23:48.342Z,4.40
2023-04-22T09:24:48.333Z,4.60
2023-04-22T09:25:48.347Z,4.70
2023-04-22T09:26:48.312Z,4.20
2023-04-22T09:27:49.697Z,4.40
2023-04-22T09:28:49.299Z,4.60
2023-04-22T09:29:48.296Z,4.30
2023-04-22T09:30:48.322Z,4.30
2023-04-22T09:31:48.350Z,4.10
2023-04-22T09:32:48.302Z,4.30
2023-04-22T09:33:50.119Z,4.30
2023-04-22T09:34:49.248Z,4.30
2023-04-22T09:35:48.267Z,4.20
2023-04-22T09:36:48.234Z,4.30
2023-04-22T09:37:49.702Z,4.40
2023-04-22T09:38:49.217Z,4.10
2023-04-22T09:39:49.631Z,4.00
2023-04-22T09:40:49.229Z,4.20
2023-04-22T09:41:48.200Z,4.30
2023-04-22T09:42:48.187Z,4.00
2023-04-22T09:43:48.174Z,4.40
2023-04-22T09:44:48.168Z,4.20
2023-04-22T09:45:48.275Z,4.00
2023-04-22T09:46:48.151Z,4.10
2023-04-22T09:47:48.175Z,3.90
2023-04-22T09:48:48.143Z,3.80
2023-04-22T09:49:48.225Z,4.60
2023-04-22T09:50:48.145Z,4.30
2023-04-22T09:51:49.847Z,4.10
2023-04-22T09:52:48.108Z,4.20
2023-04-22T09:53:48.092Z,4.20
2023-04-22T09:54:48.096Z,4.40
2023-04-22T09:55:48.108Z,5.20
2023-04-22T09:56:48.109Z,7.90
2023-04-22T09:57:48.071Z,6.90
2023-04-22T09:58:48.064Z,4.20
2023-04-22T09:59:48.050Z,4.00
2023-04-22T10:00:48.093Z,9.80
2023-04-22T10:01:48.026Z,22.30
2023-04-22T10:02:49.089Z,7.10
2023-04-22T10:03:48.032Z,32.80
2023-04-22T10:04:48.010Z,39.20
2023-04-22T10:05:48.085Z,6.10
2023-04-22T10:06:48.003Z,4.20
2023-04-22T10:07:48.049Z,4.00
2023-04-22T10:08:48.003Z,3.90
2023-04-22T10:09:47.980Z,3.90
2023-04-22T10:10:48.000Z,3.90
2023-04-22T10:11:48.019Z,4.40
2023-04-22T10:12:47.953Z,5.00
2023-04-22T10:13:47.942Z,6.90
2023-04-22T10:14:47.932Z,10.30
2023-04-22T10:15:47.954Z,13.20
2023-04-22T10:16:48.090Z,5.70
2023-04-22T10:17:47.947Z,4.20
2023-04-22T10:18:47.914Z,4.30
2023-04-22T10:19:47.897Z,4.60
2023-04-22T10:20:47.925Z,6.10
2023-04-22T10:21:47.881Z,4.60
2023-04-22T10:22:47.899Z,4.40
2023-04-22T10:23:47.869Z,4.70
2023-04-22T10:24:47.881Z,3.80
2023-04-22T10:25:47.886Z,3.80
2023-04-22T10:26:47.859Z,7.90
2023-04-22T10:27:47.829Z,10.40
2023-04-22T10:28:47.827Z,4.70
2023-04-22T10:29:47.842Z,3.60
2023-04-22T10:30:47.842Z,3.60
2023-04-22T10:31:47.798Z,3.80
2023-04-22T10:32:47.858Z,3.80
2023-04-22T10:33:48.058Z,3.80
2023-04-22T10:34:47.785Z,3.80
2023-04-22T10:35:47.799Z,3.70
2023-04-22T10:36:47.762Z,3.70
2023-04-22T10:37:47.768Z,3.90
2023-04-22T10:38:47.749Z,3.60
2023-04-22T10:39:47.740Z,3.80
2023-04-22T10:40:47.777Z,3.20
2023-04-22T10:41:47.730Z,3.60
2023-04-22T10:42:47.718Z,3.50
2023-04-22T10:43:47.722Z,3.90
2023-04-22T10:44:47.714Z,3.40
2023-04-22T10:45:47.711Z,3.40
2023-04-22T10:46:47.749Z,3.40
2023-04-22T10:47:48.006Z,3.20
2023-04-22T10:48:47.688Z,3.80
2023-04-22T10:49:47.668Z,3.40
2023-04-22T10:50:47.694Z,3.50
2023-04-22T10:51:47.697Z,3.20
2023-04-22T10:52:47.700Z,3.30
2023-04-22T10:53:47.648Z,3.50
2023-04-22T10:54:47.640Z,3.70
2023-04-22T10:55:47.625Z,3.50
2023-04-22T10:56:51.844Z,3.70
2023-04-22T10:57:49.604Z,3.30
2023-04-22T10:58:47.603Z,3.50
2023-04-22T10:59:50.092Z,3.20
2023-04-22T11:00:53.590Z,3.30
2023-04-22T11:01:50.042Z,3.40
2023-04-22T11:02:48.541Z,3.70
2023-04-22T11:03:47.635Z,3.70
2023-04-22T11:04:47.584Z,3.60
2023-04-22T11:05:47.595Z,3.60
2023-04-22T11:06:47.587Z,5.10
2023-04-22T11:07:47.548Z,3.60
2023-04-22T11:08:47.588Z,4.40
2023-04-22T11:09:47.533Z,3.70
2023-04-22T11:10:47.528Z,6.70
2023-04-22T11:11:47.518Z,3.30
2023-04-22T11:12:47.534Z,2.20
2023-04-22T11:13:47.543Z,2.00
2023-04-22T11:14:47.489Z,2.30
2023-04-22T11:15:47.514Z,2.90
2023-04-22T11:16:47.523Z,2.30
2023-04-22T11:17:47.544Z,5.20
2023-04-22T11:18:47.483Z,19.70
2023-04-22T11:19:47.452Z,6.70
2023-04-22T11:21:19.876Z,2.80
2023-04-22T11:21:48.542Z,3.40
2023-04-22T11:22:47.463Z,2.60
2023-04-22T11:23:47.423Z,2.90
2023-04-22T11:24:47.463Z,2.60
2023-04-22T11:25:47.474Z,2.80
2023-04-22T11:26:47.399Z,2.30
2023-04-22T11:27:47.424Z,2.80
2023-04-22T11:28:47.401Z,4.30
2023-04-22T11:29:47.383Z,4.90
2023-04-22T11:30:47.395Z,2.60
2023-04-22T11:31:47.431Z,2.60
2023-04-22T11:32:47.520Z,2.90
2023-04-22T11:33:49.738Z,3.10
2023-04-22T11:34:47.335Z,2.90
2023-04-22T11:35:47.334Z,5.40
2023-04-22T11:36:47.326Z,4.10
2023-04-22T11:37:47.346Z,3.40
2023-04-22T11:38:47.311Z,2.30
2023-04-22T11:40:05.302Z,9.80
2023-04-22T11:40:49.502Z,3.00
2023-04-22T11:41:47.323Z,3.10
2023-04-22T11:42:47.301Z,10.00
2023-04-22T11:43:47.260Z,5.60
2023-04-22T11:44:48.254Z,3.10
2023-04-22T11:45:47.260Z,5.80
2023-04-22T11:46:47.382Z,3.70
2023-04-22T11:47:47.761Z,2.60
2023-04-22T11:48:47.226Z,2.20
2023-04-22T11:49:47.234Z,2.80
2023-04-22T11:50:47.205Z,2.40
2023-04-22T11:51:47.229Z,2.40
2023-04-22T11:52:47.214Z,2.00
2023-04-22T11:53:47.181Z,2.20
2023-04-22T11:54:47.178Z,10.50
2023-04-22T11:55:47.176Z,6.40
2023-04-22T11:56:47.205Z,7.30
2023-04-22T11:57:47.182Z,3.90
2023-04-22T11:58:47.161Z,4.40
2023-04-22T11:59:47.135Z,2.10
2023-04-22T12:00:47.137Z,2.20
2023-04-22T12:01:47.304Z,4.10
2023-04-22T12:02:47.203Z,2.30
2023-04-22T12:03:47.374Z,3.10
2023-04-22T12:04:47.113Z,5.20
2023-04-22T12:05:47.112Z,3.10
2023-04-22T12:06:47.099Z,2.90
2023-04-22T12:07:47.105Z,4.60
2023-04-22T12:08:47.110Z,4.00
2023-04-22T12:09:47.062Z,3.70
2023-04-22T12:10:47.069Z,2.70
2023-04-22T12:11:47.043Z,2.20
2023-04-22T12:12:47.069Z,2.50
2023-04-22T12:13:47.033Z,2.10
2023-04-22T12:14:47.015Z,2.40
2023-04-22T12:15:47.017Z,2.20
2023-04-22T12:16:47.025Z,2.30
2023-04-22T12:17:47.048Z,2.50
2023-04-22T12:18:46.992Z,2.30
2023-04-22T12:19:46.993Z,2.50
2023-04-22T12:20:46.995Z,3.80
2023-04-22T12:21:46.990Z,2.80
2023-04-22T12:22:46.990Z,2.60
2023-04-22T12:23:47.051Z,3.10
2023-04-22T12:24:47.036Z,2.50
2023-04-22T12:25:46.953Z,2.40
2023-04-22T12:26:48.420Z,2.30
2023-04-22T12:27:46.952Z,2.20
2023-04-22T12:28:46.929Z,2.20
2023-04-22T12:29:46.903Z,2.40
2023-04-22T12:30:46.932Z,2.50
2023-04-22T12:31:46.919Z,2.40
2023-04-22T12:32:46.914Z,2.40
2023-04-22T12:33:46.931Z,2.50
2023-04-22T12:34:46.979Z,2.80
2023-04-22T12:35:49.545Z,2.70
2023-04-22T12:36:46.863Z,2.70
2023-04-22T12:37:46.900Z,3.10
2023-04-22T12:38:46.904Z,3.00
2023-04-22T12:39:46.839Z,3.30
2023-04-22T12:40:46.826Z,2.90
2023-04-22T12:41:46.837Z,4.80
2023-04-22T12:42:46.856Z,3.80
2023-04-22T12:43:46.794Z,3.70
2023-04-22T12:44:46.813Z,2.80
2023-04-22T12:45:46.794Z,3.00
2023-04-22T12:46:46.898Z,2.70
2023-04-22T12:47:46.837Z,3.00
2023-04-22T12:48:46.761Z,2.90
2023-04-22T12:49:47.280Z,2.90
2023-04-22T12:50:47.748Z,2.80
2023-04-22T12:51:46.840Z,2.60
2023-04-22T12:52:46.753Z,2.40
2023-04-22T12:53:46.884Z,5.30
2023-04-22T12:54:46.727Z,4.00
2023-04-22T12:55:46.705Z,5.50
2023-04-22T12:56:46.755Z,4.10
2023-04-22T12:57:46.739Z,4.50
2023-04-22T12:58:46.703Z,4.20
2023-04-22T12:59:46.700Z,4.50
2023-04-22T13:00:46.667Z,3.90
2023-04-22T13:01:46.717Z,3.60
2023-04-22T13:02:46.753Z,3.20
2023-04-22T13:03:46.784Z,2.40
2023-04-22T13:04:46.650Z,2.30
2023-04-22T13:05:46.623Z,2.30
2023-04-22T13:06:46.633Z,2.00
2023-04-22T13:07:53.230Z,1.80
2023-04-22T13:08:48.601Z,1.90
2023-04-22T13:09:46.605Z,2.10
2023-04-22T13:10:46.589Z,2.10
2023-04-22T13:11:46.669Z,2.20
2023-04-22T13:12:46.589Z,2.00
2023-04-22T13:13:46.556Z,2.40
2023-04-22T13:14:46.557Z,3.00
2023-04-22T13:15:46.557Z,3.00
2023-04-22T13:16:46.614Z,2.60